Time;durP1;ratioP1;P1;durP2;ratioP2;P2;SDS_P1;SDS_P2;PMS_P1;PMS_P2;Temp;Humidity;BMP_temperature;BMP_pressure;BME280_temperature;BME280_humidity;BME280_pressure;Samples;Min_cycle;Max_cycle;Signal;HPM_P1;HPM_P2
2021/09/15 00:03:54;;;;;;;;;;;17.80;99.90;;;;;;8292661;28;19920;-63
2021/09/15 00:07:55;;;;;;;;;;;18.00;99.90;;;;;;8274603;28;19944;-64
2021/09/15 00:11:55;;;;;;;;;;;17.60;99.90;;;;;;8292341;28;19956;-64
2021/09/15 00:15:56;;;;;;;;;;;17.40;99.90;;;;;;8262854;28;19906;-64
2021/09/15 00:19:56;;;;;;;;;;;17.30;99.90;;;;;;8265296;28;20010;-63
2021/09/15 00:23:57;;;;;;;;;;;17.70;99.90;;;;;;8291658;28;19920;-63
2021/09/15 00:27:57;;;;;;;;;;;17.50;99.90;;;;;;8291672;28;19915;-63
2021/09/15 00:31:58;;;;;;;;;;;17.60;99.90;;;;;;8291637;28;20348;-64
2021/09/15 00:35:58;;;;;;;;;;;17.70;99.90;;;;;;8291308;28;19924;-63
2021/09/15 00:39:59;;;;;;;;;;;17.60;99.90;;;;;;8291691;28;19952;-63
2021/09/15 00:44:09;;;;;;;;;;;17.50;99.90;;;;;;8291062;28;19909;-63
2021/09/15 00:48:09;;;;;;;;;;;17.30;99.90;;;;;;8291259;28;19905;-63
2021/09/15 00:52:10;;;;;;;;;;;17.30;99.90;;;;;;8291239;28;19975;-63
2021/09/15 00:56:10;;;;;;;;;;;17.20;99.90;;;;;;8290307;28;19916;-63
2021/09/15 01:00:11;;;;;;;;;;;17.30;99.90;;;;;;8290502;28;19968;-63
2021/09/15 01:04:11;;;;;;;;;;;17.30;99.90;;;;;;8290616;28;20297;-64
2021/09/15 01:08:13;;;;;;;;;;;17.10;99.90;;;;;;8290541;28;19912;-63
2021/09/15 01:12:13;;;;;;;;;;;17.20;99.90;;;;;;8290992;28;19905;-64
2021/09/15 01:16:14;;;;;;;;;;;17.00;99.90;;;;;;8290564;28;19909;-63
2021/09/15 01:20:14;;;;;;;;;;;17.20;99.90;;;;;;8290598;28;20108;-64
2021/09/15 01:24:15;;;;;;;;;;;17.10;99.90;;;;;;8290102;28;19963;-64
2021/09/15 01:28:16;;;;;;;;;;;17.00;99.90;;;;;;8272343;28;19916;-63
2021/09/15 01:32:16;;;;;;;;;;;17.00;99.90;;;;;;8289825;28;19909;-63
2021/09/15 01:36:17;;;;;;;;;;;16.90;99.90;;;;;;8289790;28;19917;-63
2021/09/15 01:40:17;;;;;;;;;;;17.00;99.90;;;;;;8290191;28;19988;-64
2021/09/15 01:44:17;;;;;;;;;;;17.00;99.90;;;;;;8289679;28;19913;-63
2021/09/15 01:48:18;;;;;;;;;;;17.10;99.90;;;;;;8289736;28;19909;-63
2021/09/15 01:52:19;;;;;;;;;;;17.20;99.90;;;;;;8289855;28;19979;-63
2021/09/15 01:56:19;;;;;;;;;;;17.10;99.90;;;;;;8292449;28;19916;-63
2021/09/15 02:00:20;;;;;;;;;;;16.90;99.90;;;;;;8296540;28;19910;-64
2021/09/15 02:04:21;;;;;;;;;;;16.90;99.90;;;;;;8279215;28;19963;-63
2021/09/15 02:08:21;;;;;;;;;;;17.00;99.90;;;;;;8298628;28;19996;-64
2021/09/15 02:12:21;;;;;;;;;;;16.90;99.90;;;;;;8299965;28;20281;-63
2021/09/15 02:16:22;;;;;;;;;;;16.90;99.90;;;;;;8299752;28;20007;-63
2021/09/15 02:20:22;;;;;;;;;;;16.90;99.90;;;;;;8299731;28;19905;-63
2021/09/15 02:24:23;;;;;;;;;;;16.90;99.90;;;;;;8281668;28;20289;-63
2021/09/15 02:28:23;;;;;;;;;;;17.00;99.90;;;;;;8299377;28;19906;-64
2021/09/15 02:32:24;;;;;;;;;;;16.90;99.90;;;;;;8299314;28;20366;-63
2021/09/15 02:36:25;;;;;;;;;;;16.70;99.90;;;;;;8298638;28;19992;-64
2021/09/15 02:40:26;;;;;;;;;;;16.60;99.90;;;;;;8298933;28;19909;-63
2021/09/15 02:44:26;;;;;;;;;;;16.50;99.90;;;;;;8280707;28;19920;-64
2021/09/15 02:48:27;;;;;;;;;;;16.60;99.90;;;;;;8298079;28;19913;-63
2021/09/15 02:52:27;;;;;;;;;;;16.70;99.90;;;;;;8298268;28;20392;-63
2021/09/15 02:56:27;;;;;;;;;;;16.70;99.90;;;;;;8297674;28;19984;-63
2021/09/15 03:00:28;;;;;;;;;;;16.60;99.90;;;;;;8279595;28;19906;-63
2021/09/15 03:04:28;;;;;;;;;;;16.40;99.90;;;;;;8296766;28;19910;-63
2021/09/15 03:08:29;;;;;;;;;;;16.70;99.90;;;;;;8296484;28;20542;-63
2021/09/15 03:12:29;;;;;;;;;;;16.70;99.90;;;;;;8297951;28;20286;-63
2021/09/15 03:16:30;;;;;;;;;;;16.60;99.90;;;;;;8297706;28;19928;-63
2021/09/15 03:20:30;;;;;;;;;;;16.30;99.90;;;;;;8297836;28;19905;-63
2021/09/15 03:24:30;;;;;;;;;;;16.20;99.90;;;;;;8279625;28;20003;-63
2021/09/15 03:28:31;;;;;;;;;;;16.10;99.90;;;;;;8280059;28;19912;-63
2021/09/15 03:32:31;;;;;;;;;;;16.00;99.90;;;;;;8298012;28;19917;-63
2021/09/15 03:36:32;;;;;;;;;;;16.10;99.90;;;;;;8296490;28;19913;-63
2021/09/15 03:40:32;;;;;;;;;;;16.30;99.90;;;;;;8297149;28;19905;-63
2021/09/15 03:44:33;;;;;;;;;;;16.50;99.90;;;;;;8296579;28;19917;-63
2021/09/15 03:48:33;;;;;;;;;;;16.40;99.90;;;;;;8293801;28;19909;-63
2021/09/15 03:52:34;;;;;;;;;;;16.30;99.90;;;;;;8295893;28;19913;-63
2021/09/15 03:56:34;;;;;;;;;;;16.30;99.90;;;;;;8294541;28;19921;-63
2021/09/15 04:00:35;;;;;;;;;;;16.40;99.90;;;;;;8296212;28;19945;-63
2021/09/15 04:04:35;;;;;;;;;;;16.40;99.90;;;;;;8277617;28;19921;-63
2021/09/15 04:08:35;;;;;;;;;;;16.50;99.90;;;;;;8296035;28;19936;-63
2021/09/15 04:12:36;;;;;;;;;;;16.50;99.90;;;;;;8278365;28;19921;-63
2021/09/15 04:16:36;;;;;;;;;;;16.50;99.90;;;;;;8295103;28;19992;-64
2021/09/15 04:20:37;;;;;;;;;;;16.60;99.90;;;;;;8294446;28;19949;-63
2021/09/15 04:33:00;;;;;;;;;;;16.60;99.90;;;;;;8294532;28;19917;-63
2021/09/15 04:37:01;;;;;;;;;;;16.60;99.90;;;;;;8273878;28;19914;-63
2021/09/15 04:41:01;;;;;;;;;;;16.50;99.90;;;;;;8293356;28;20377;-63
2021/09/15 04:45:02;;;;;;;;;;;16.80;99.90;;;;;;8294191;28;19936;-63
2021/09/15 04:49:02;;;;;;;;;;;16.80;99.90;;;;;;8292324;28;19913;-63
2021/09/15 04:53:03;;;;;;;;;;;16.50;99.90;;;;;;8291298;28;19905;-63
2021/09/15 04:57:03;;;;;;;;;;;16.70;99.90;;;;;;8276003;28;19960;-63
2021/09/15 05:01:04;;;;;;;;;;;16.60;99.90;;;;;;8291806;28;20384;-63
2021/09/15 05:05:04;;;;;;;;;;;16.70;99.90;;;;;;8277117;28;20362;-63
2021/09/15 05:09:05;;;;;;;;;;;16.80;99.90;;;;;;8277566;28;19906;-63
2021/09/15 05:13:05;;;;;;;;;;;16.80;99.90;;;;;;8249872;28;19914;-63
2021/09/15 05:17:06;;;;;;;;;;;17.10;99.90;;;;;;8261910;28;19919;-63
2021/09/15 05:21:06;;;;;;;;;;;16.90;99.90;;;;;;8294115;28;20352;-63
2021/09/15 05:25:07;;;;;;;;;;;16.80;99.90;;;;;;8293640;28;19909;-63
2021/09/15 05:29:07;;;;;;;;;;;16.70;99.90;;;;;;8293627;28;19905;-63
2021/09/15 05:33:08;;;;;;;;;;;16.90;99.90;;;;;;8276059;28;19948;-63
2021/09/15 05:37:09;;;;;;;;;;;16.90;99.90;;;;;;8293600;28;20465;-63
2021/09/15 05:41:09;;;;;;;;;;;16.90;99.90;;;;;;8279854;28;19909;-63
2021/09/15 05:45:10;;;;;;;;;;;17.00;99.90;;;;;;8276348;28;19909;-63
2021/09/15 05:49:10;;;;;;;;;;;17.00;99.90;;;;;;8283311;28;19981;-63
2021/09/15 05:53:12;;;;;;;;;;;16.90;99.90;;;;;;8293216;28;19992;-63
2021/09/15 05:57:13;;;;;;;;;;;16.90;99.90;;;;;;8293047;28;19941;-63
2021/09/15 06:01:13;;;;;;;;;;;17.10;99.90;;;;;;8293448;28;20287;-63
2021/09/15 06:05:14;;;;;;;;;;;17.20;99.90;;;;;;8292186;28;19963;-63
2021/09/15 06:09:14;;;;;;;;;;;17.20;99.90;;;;;;8293520;28;20435;-62
2021/09/15 06:13:15;;;;;;;;;;;17.20;99.90;;;;;;8293608;28;19967;-63
2021/09/15 06:17:15;;;;;;;;;;;17.10;99.90;;;;;;8292968;28;19912;-63
2021/09/15 06:21:16;;;;;;;;;;;17.10;99.90;;;;;;8293256;28;19951;-63
2021/09/15 06:25:17;;;;;;;;;;;17.20;99.90;;;;;;8292717;28;19917;-63
2021/09/15 06:29:17;;;;;;;;;;;17.30;99.90;;;;;;8293058;28;19992;-63
2021/09/15 06:33:18;;;;;;;;;;;17.30;99.90;;;;;;8292886;28;20404;-63
2021/09/15 06:37:18;;;;;;;;;;;17.30;99.90;;;;;;8292766;28;19917;-63
2021/09/15 06:41:18;;;;;;;;;;;17.50;99.90;;;;;;8294172;28;19913;-63
2021/09/15 06:45:19;;;;;;;;;;;17.70;99.90;;;;;;8298523;28;19916;-63
2021/09/15 06:49:19;;;;;;;;;;;17.70;99.90;;;;;;8298512;28;19905;-63
2021/09/15 06:53:20;;;;;;;;;;;18.00;99.90;;;;;;8281334;28;19905;-63
2021/09/15 06:57:20;;;;;;;;;;;18.30;99.90;;;;;;8298282;28;20385;-63
2021/09/15 07:01:24;;;;;;;;;;;18.10;99.90;;;;;;8280778;28;20513;-63
2021/09/15 07:05:24;;;;;;;;;;;18.20;99.90;;;;;;8297266;28;19909;-63
2021/09/15 07:09:25;;;;;;;;;;;18.40;99.90;;;;;;8297923;28;20285;-63
2021/09/15 07:13:28;;;;;;;;;;;18.60;99.90;;;;;;8274241;28;19960;-63
2021/09/15 07:17:29;;;;;;;;;;;18.90;99.90;;;;;;8277601;28;19972;-63
2021/09/15 07:21:29;;;;;;;;;;;19.00;99.90;;;;;;8297181;28;19941;-63
2021/09/15 07:25:30;;;;;;;;;;;19.00;99.90;;;;;;8296620;28;19909;-63
2021/09/15 07:29:30;;;;;;;;;;;19.10;99.90;;;;;;8279242;28;20386;-63
2021/09/15 07:33:32;;;;;;;;;;;19.30;99.90;;;;;;8296983;28;19910;-63
2021/09/15 07:37:33;;;;;;;;;;;19.20;99.90;;;;;;8295762;28;19976;-63
2021/09/15 07:41:33;;;;;;;;;;;18.90;99.90;;;;;;8295885;28;20462;-63
2021/09/15 07:45:34;;;;;;;;;;;19.10;99.90;;;;;;8295948;28;19909;-63
2021/09/15 07:49:34;;;;;;;;;;;19.20;99.90;;;;;;8295339;28;19952;-63
2021/09/15 07:53:35;;;;;;;;;;;19.00;99.90;;;;;;8295393;28;19984;-63
2021/09/15 07:57:35;;;;;;;;;;;19.00;99.90;;;;;;8278210;28;19914;-63
2021/09/15 08:01:36;;;;;;;;;;;18.90;99.90;;;;;;8295305;28;19917;-63
2021/09/15 08:05:36;;;;;;;;;;;18.80;99.90;;;;;;8294470;28;20451;-63
2021/09/15 08:09:37;;;;;;;;;;;18.90;99.90;;;;;;8295548;28;20004;-63
2021/09/15 08:13:37;;;;;;;;;;;19.10;99.90;;;;;;8295272;28;19909;-63
2021/09/15 08:17:38;;;;;;;;;;;19.40;99.90;;;;;;8277297;28;19949;-63
2021/09/15 08:21:40;;;;;;;;;;;19.40;99.90;;;;;;8294776;28;19909;-64
2021/09/15 08:25:41;;;;;;;;;;;19.40;99.90;;;;;;8287415;28;20338;-64
2021/09/15 08:29:42;;;;;;;;;;;19.50;99.90;;;;;;8293424;28;19905;-64
2021/09/15 08:33:42;;;;;;;;;;;19.70;99.90;;;;;;8276347;28;20079;-64
2021/09/15 08:37:42;;;;;;;;;;;20.00;99.90;;;;;;8275685;28;19913;-64
2021/09/15 08:41:43;;;;;;;;;;;20.60;99.90;;;;;;8294378;28;19905;-64
2021/09/15 08:45:44;;;;;;;;;;;20.80;99.90;;;;;;8293723;28;19909;-64
2021/09/15 08:49:45;;;;;;;;;;;21.00;99.90;;;;;;8276499;28;20285;-64
2021/09/15 08:53:46;;;;;;;;;;;21.50;99.90;;;;;;8293687;28;19909;-64
2021/09/15 08:57:46;;;;;;;;;;;22.00;99.90;;;;;;8293266;28;19916;-64
2021/09/15 09:01:47;;;;;;;;;;;22.70;99.90;;;;;;8293720;28;20338;-64
2021/09/15 09:05:47;;;;;;;;;;;23.30;99.90;;;;;;8292959;28;19914;-64
2021/09/15 09:09:49;;;;;;;;;;;23.60;99.90;;;;;;8293688;28;19909;-64
2021/09/15 09:13:53;;;;;;;;;;;23.80;99.90;;;;;;8293241;28;19916;-64
2021/09/15 09:18:00;;;;;;;;;;;24.30;99.90;;;;;;8275563;28;20389;-64
2021/09/15 09:22:05;;;;;;;;;;;24.60;99.90;;;;;;8291362;28;19905;-64
2021/09/15 09:26:06;;;;;;;;;;;24.80;99.90;;;;;;8292806;28;19964;-64
2021/09/15 09:30:26;;;;;;;;;;;24.50;99.90;;;;;;8292320;28;19909;-64
2021/09/15 09:34:28;;;;;;;;;;;24.00;99.90;;;;;;8273863;28;19909;-64
2021/09/15 09:38:30;;;;;;;;;;;23.70;99.90;;;;;;8290862;28;19913;-63
2021/09/15 09:42:32;;;;;;;;;;;23.60;99.90;;;;;;8292426;28;19913;-64
2021/09/15 09:46:33;;;;;;;;;;;23.60;99.90;;;;;;8291923;28;19905;-64
2021/09/15 09:50:34;;;;;;;;;;;23.70;99.90;;;;;;8290993;28;19909;-64
2021/09/15 09:54:35;;;;;;;;;;;24.00;99.90;;;;;;8274676;28;19912;-64
2021/09/15 09:58:36;;;;;;;;;;;24.20;99.90;;;;;;8292800;28;20311;-64
2021/09/15 10:02:37;;;;;;;;;;;24.30;99.90;;;;;;8275003;28;19939;-63
2021/09/15 10:06:38;;;;;;;;;;;24.40;99.90;;;;;;8290542;28;19905;-64
2021/09/15 10:10:41;;;;;;;;;;;24.60;99.90;;;;;;8293217;28;20011;-64
2021/09/15 10:14:42;;;;;;;;;;;24.50;99.90;;;;;;8293019;28;19905;-64
2021/09/15 10:18:50;;;;;;;;;;;24.40;99.90;;;;;;8298002;28;20285;-64
2021/09/15 10:22:50;;;;;;;;;;;24.60;99.90;;;;;;8299700;28;20361;-63
2021/09/15 10:26:57;;;;;;;;;;;24.50;99.90;;;;;;8299483;28;19913;-64
2021/09/15 10:30:58;;;;;;;;;;;25.30;99.90;;;;;;8299682;28;19983;-64
2021/09/15 10:34:58;;;;;;;;;;;25.40;99.90;;;;;;8299203;28;19917;-64
2021/09/15 10:39:00;;;;;;;;;;;24.90;99.90;;;;;;8299588;28;20012;-63
2021/09/15 10:43:00;;;;;;;;;;;25.00;99.90;;;;;;8299402;28;19909;-64
2021/09/15 10:47:14;;;;;;;;;;;25.80;99.90;;;;;;8298960;28;19905;-63
2021/09/15 10:51:19;;;;;;;;;;;26.30;99.90;;;;;;8266491;28;20044;-63
2021/09/15 10:55:21;;;;;;;;;;;26.50;99.90;;;;;;8265889;28;19906;-64
2021/09/15 10:59:40;;;;;;;;;;;27.40;99.90;;;;;;8265395;28;20275;-64
2021/09/15 11:03:53;;;;;;;;;;;29.30;99.90;;;;;;8265356;28;19916;-63
2021/09/15 11:07:54;;;;;;;;;;;28.90;99.90;;;;;;8267628;28;19996;-64
2021/09/15 11:11:54;;;;;;;;;;;28.00;99.90;;;;;;8282133;28;20369;-64
2021/09/15 11:15:55;;;;;;;;;;;27.20;99.90;;;;;;8291775;28;19909;-64
2021/09/15 11:20:01;;;;;;;;;;;26.10;99.90;;;;;;8296701;28;19905;-64
2021/09/15 11:24:16;;;;;;;;;;;25.00;99.90;;;;;;8297264;28;19913;-64
2021/09/15 11:28:18;;;;;;;;;;;24.30;99.90;;;;;;8273911;28;20324;-64
2021/09/15 11:32:20;;;;;;;;;;;23.90;99.90;;;;;;8295774;28;20348;-64
2021/09/15 11:36:20;;;;;;;;;;;23.30;99.90;;;;;;8295293;28;19917;-64
2021/09/15 11:40:27;;;;;;;;;;;23.10;99.90;;;;;;8296299;28;19968;-64
2021/09/15 11:44:28;;;;;;;;;;;22.90;99.90;;;;;;8278527;28;19913;-64
2021/09/15 11:48:29;;;;;;;;;;;22.70;99.90;;;;;;8278585;28;19949;-64
2021/09/15 11:52:39;;;;;;;;;;;22.80;99.90;;;;;;8296090;28;19913;-64
2021/09/15 12:00:50;;;;;;;;;;;23.70;99.90;;;;;;8294392;28;20378;-64
2021/09/15 12:04:50;;;;;;;;;;;24.50;99.90;;;;;;8295161;28;19917;-64
2021/09/15 12:08:51;;;;;;;;;;;24.90;99.90;;;;;;8294064;28;20015;-65
2021/09/15 12:12:55;;;;;;;;;;;25.50;99.90;;;;;;8277369;28;20259;-64
2021/09/15 12:16:59;;;;;;;;;;;26.10;99.90;;;;;;8294724;28;19910;-64
2021/09/15 12:21:00;;;;;;;;;;;25.60;99.90;;;;;;8294783;28;19909;-64
2021/09/15 12:25:06;;;;;;;;;;;25.90;99.90;;;;;;8291365;28;19913;-64
2021/09/15 12:29:11;;;;;;;;;;;27.10;99.90;;;;;;8293695;28;19913;-64
2021/09/15 12:33:20;;;;;;;;;;;27.70;99.90;;;;;;8272544;28;19916;-64
2021/09/15 12:37:21;;;;;;;;;;;27.70;99.90;;;;;;8293573;28;20404;-64
2021/09/15 12:41:21;;;;;;;;;;;27.40;99.90;;;;;;8293466;28;19916;-64
2021/09/15 12:45:22;;;;;;;;;;;26.60;99.90;;;;;;8292300;28;19913;-65
2021/09/15 12:49:26;;;;;;;;;;;27.90;99.90;;;;;;8276735;28;19994;-65
2021/09/15 12:53:26;;;;;;;;;;;30.40;99.90;;;;;;8293609;28;19921;-65
2021/09/15 12:57:28;;;;;;;;;;;33.10;99.90;;;;;;8294609;28;20385;-65
2021/09/15 13:01:29;;;;;;;;;;;33.30;97.50;;;;;;8292457;28;20002;-65
2021/09/15 13:05:33;;;;;;;;;;;31.80;97.40;;;;;;8292423;28;19909;-65
2021/09/15 13:09:33;;;;;;;;;;;31.00;99.90;;;;;;8291068;28;19913;-65
2021/09/15 13:13:34;;;;;;;;;;;30.90;97.30;;;;;;8290878;28;20356;-65
2021/09/15 13:17:34;;;;;;;;;;;29.40;99.90;;;;;;8290958;28;20389;-64
2021/09/15 13:21:35;;;;;;;;;;;27.90;99.90;;;;;;8293187;28;19912;-64
2021/09/15 13:25:36;;;;;;;;;;;26.90;99.90;;;;;;8293637;28;19917;-65
2021/09/15 13:29:38;;;;;;;;;;;26.00;99.90;;;;;;8276558;28;20019;-65
2021/09/15 13:33:38;;;;;;;;;;;25.40;99.90;;;;;;8276337;28;19906;-64
2021/09/15 13:37:39;;;;;;;;;;;24.80;99.90;;;;;;8293544;28;20535;-64
2021/09/15 13:41:39;;;;;;;;;;;24.10;99.90;;;;;;8293991;28;19906;-64
2021/09/15 13:45:40;;;;;;;;;;;24.00;99.90;;;;;;8293153;28;19909;-64
2021/09/15 13:49:40;;;;;;;;;;;24.90;99.90;;;;;;8293957;28;19909;-64
2021/09/15 13:53:41;;;;;;;;;;;26.30;99.90;;;;;;8293294;28;19906;-64
2021/09/15 13:57:42;;;;;;;;;;;26.80;99.90;;;;;;8293242;28;19910;-64
2021/09/15 14:01:42;;;;;;;;;;;26.40;99.90;;;;;;8293484;28;19909;-64
2021/09/15 14:05:43;;;;;;;;;;;26.10;99.90;;;;;;8292608;28;19916;-64
2021/09/15 14:09:43;;;;;;;;;;;26.10;99.90;;;;;;8293630;28;19906;-65
2021/09/15 14:13:44;;;;;;;;;;;25.90;99.90;;;;;;8293267;28;19949;-64
2021/09/15 14:17:44;;;;;;;;;;;26.00;99.90;;;;;;8291454;28;20373;-64
2021/09/15 14:21:44;;;;;;;;;;;25.80;99.90;;;;;;8292597;28;20064;-64
2021/09/15 14:25:45;;;;;;;;;;;25.40;99.90;;;;;;8275211;28;19909;-64
2021/09/15 14:29:45;;;;;;;;;;;24.70;99.90;;;;;;8292812;28;19932;-64
2021/09/15 14:33:46;;;;;;;;;;;24.10;99.90;;;;;;8293204;28;19906;-64
2021/09/15 14:37:46;;;;;;;;;;;23.60;99.90;;;;;;8291889;28;20408;-64
2021/09/15 14:41:47;;;;;;;;;;;23.20;99.90;;;;;;8292944;28;19909;-64
2021/09/15 14:45:47;;;;;;;;;;;23.00;99.90;;;;;;8274642;28;19909;-64
2021/09/15 14:49:48;;;;;;;;;;;22.90;99.90;;;;;;8291630;28;19917;-63
2021/09/15 14:53:49;;;;;;;;;;;22.80;99.90;;;;;;8292483;28;19932;-65
2021/09/15 14:57:49;;;;;;;;;;;22.90;99.90;;;;;;8290827;28;19909;-65
2021/09/15 15:01:49;;;;;;;;;;;22.80;99.90;;;;;;8292250;28;19909;-65
2021/09/15 15:05:50;;;;;;;;;;;22.80;99.90;;;;;;8297280;28;20447;-65
2021/09/15 15:09:54;;;;;;;;;;;22.80;99.90;;;;;;8296687;28;20000;-65
2021/09/15 15:13:54;;;;;;;;;;;22.80;99.90;;;;;;8297543;28;20380;-65
2021/09/15 15:17:55;;;;;;;;;;;23.30;99.90;;;;;;8295964;28;19988;-65
2021/09/15 15:21:55;;;;;;;;;;;23.90;99.90;;;;;;8296945;28;19916;-65
2021/09/15 15:25:56;;;;;;;;;;;23.90;99.90;;;;;;8295628;28;19913;-66
2021/09/15 15:29:58;;;;;;;;;;;23.50;99.90;;;;;;8292912;28;19913;-65
2021/09/15 15:33:58;;;;;;;;;;;23.10;99.90;;;;;;8295231;28;19913;-65
2021/09/15 15:37:59;;;;;;;;;;;22.50;99.90;;;;;;8296625;28;20424;-65
2021/09/15 15:41:59;;;;;;;;;;;22.50;99.90;;;;;;8296662;28;19906;-66
2021/09/15 15:46:00;;;;;;;;;;;22.30;99.90;;;;;;8295372;28;19935;-66
2021/09/15 15:50:01;;;;;;;;;;;22.20;99.90;;;;;;8284930;28;19909;-66
2021/09/15 15:54:02;;;;;;;;;;;21.90;99.90;;;;;;8296057;28;19906;-66
2021/09/15 15:58:02;;;;;;;;;;;22.00;99.90;;;;;;8295068;28;20453;-66
2021/09/15 16:02:04;;;;;;;;;;;21.90;99.90;;;;;;8295271;28;19937;-66
2021/09/15 16:06:04;;;;;;;;;;;21.80;99.90;;;;;;8294824;28;19916;-66
2021/09/15 16:10:05;;;;;;;;;;;21.60;99.90;;;;;;8294380;28;20440;-65
2021/09/15 16:14:06;;;;;;;;;;;21.50;99.90;;;;;;8292682;28;20379;-65
2021/09/15 16:18:07;;;;;;;;;;;21.30;99.90;;;;;;8291959;28;19948;-65
2021/09/15 16:22:07;;;;;;;;;;;21.30;99.90;;;;;;8294872;28;19956;-65
2021/09/15 16:26:08;;;;;;;;;;;21.30;99.90;;;;;;8293970;28;19913;-65
2021/09/15 16:30:08;;;;;;;;;;;21.20;99.90;;;;;;8294471;28;19905;-66
2021/09/15 16:34:09;;;;;;;;;;;21.00;99.90;;;;;;8294912;28;19914;-65
2021/09/15 16:38:09;;;;;;;;;;;20.80;99.90;;;;;;8294229;28;20388;-65
2021/09/15 16:42:10;;;;;;;;;;;20.60;99.90;;;;;;8293995;28;19964;-66
2021/09/15 16:46:10;;;;;;;;;;;20.60;99.90;;;;;;8293954;28;20424;-65
2021/09/15 16:50:11;;;;;;;;;;;20.60;99.90;;;;;;8294881;28;19909;-65
2021/09/15 16:54:11;;;;;;;;;;;20.50;99.90;;;;;;8277395;28;20022;-65
2021/09/15 16:58:12;;;;;;;;;;;20.30;99.90;;;;;;8294342;28;20010;-65
2021/09/15 17:02:12;;;;;;;;;;;20.40;99.90;;;;;;8289057;28;19963;-65
2021/09/15 17:06:13;;;;;;;;;;;20.30;99.90;;;;;;8290028;28;20005;-65
2021/09/15 17:10:14;;;;;;;;;;;20.00;99.90;;;;;;8291017;28;20354;-65
2021/09/15 17:14:15;;;;;;;;;;;20.00;99.90;;;;;;8290407;28;20396;-65
2021/09/15 17:18:15;;;;;;;;;;;19.90;99.90;;;;;;8272654;28;19912;-65
2021/09/15 17:22:16;;;;;;;;;;;19.90;99.90;;;;;;8290755;28;19906;-64
2021/09/15 17:26:17;;;;;;;;;;;19.90;99.90;;;;;;8288391;28;19996;-64
2021/09/15 17:30:18;;;;;;;;;;;19.50;99.90;;;;;;8290453;28;19975;-64
2021/09/15 17:34:18;;;;;;;;;;;19.10;99.90;;;;;;8290470;28;19996;-65
2021/09/15 17:38:19;;;;;;;;;;;18.90;99.90;;;;;;8290437;28;19960;-65
2021/09/15 17:42:20;;;;;;;;;;;18.70;99.90;;;;;;8272673;28;19925;-64
2021/09/15 17:46:21;;;;;;;;;;;18.60;99.90;;;;;;8271543;28;19914;-64
2021/09/15 17:50:21;;;;;;;;;;;18.50;99.90;;;;;;8289959;28;19944;-65
2021/09/15 17:54:22;;;;;;;;;;;18.50;99.90;;;;;;8290138;28;19954;-65
2021/09/15 17:58:22;;;;;;;;;;;18.50;99.90;;;;;;8271888;28;19920;-65
2021/09/15 18:02:23;;;;;;;;;;;18.50;99.90;;;;;;8288554;28;19921;-65
2021/09/15 18:06:24;;;;;;;;;;;18.50;99.90;;;;;;8289448;28;19909;-65
2021/09/15 18:10:25;;;;;;;;;;;18.50;99.90;;;;;;8289905;28;20297;-65
2021/09/15 18:14:25;;;;;;;;;;;18.50;99.90;;;;;;8289993;28;19920;-65
2021/09/15 18:18:26;;;;;;;;;;;18.40;99.90;;;;;;8288763;28;20296;-65
2021/09/15 18:22:26;;;;;;;;;;;18.40;99.90;;;;;;8289922;28;20340;-65
2021/09/15 18:26:27;;;;;;;;;;;18.40;99.90;;;;;;8289391;28;19921;-65
2021/09/15 18:30:27;;;;;;;;;;;18.30;99.90;;;;;;8289729;28;19990;-65
2021/09/15 18:34:28;;;;;;;;;;;18.40;99.90;;;;;;8285808;28;19985;-65
2021/09/15 18:38:29;;;;;;;;;;;18.40;99.90;;;;;;8289429;28;19913;-65
2021/09/15 18:42:29;;;;;;;;;;;18.50;99.90;;;;;;8284747;28;20484;-65
2021/09/15 18:46:31;;;;;;;;;;;18.40;99.90;;;;;;8294279;28;19956;-65
2021/09/15 18:50:32;;;;;;;;;;;18.40;99.90;;;;;;8294462;28;19948;-65
2021/09/15 18:54:32;;;;;;;;;;;18.40;99.90;;;;;;8294386;28;19936;-65
2021/09/15 18:58:33;;;;;;;;;;;18.30;99.90;;;;;;8290076;28;19910;-66
2021/09/15 19:02:33;;;;;;;;;;;18.30;99.90;;;;;;8293608;28;19913;-66
2021/09/15 19:06:34;;;;;;;;;;;18.30;99.90;;;;;;8293607;28;19948;-66
2021/09/15 19:10:34;;;;;;;;;;;18.20;99.90;;;;;;8292160;28;19923;-65
2021/09/15 19:14:35;;;;;;;;;;;18.10;99.90;;;;;;8290937;28;19967;-66
2021/09/15 19:18:36;;;;;;;;;;;18.20;99.90;;;;;;8293329;28;19906;-66
2021/09/15 19:22:36;;;;;;;;;;;18.20;99.90;;;;;;8275144;28;20024;-66
2021/09/15 19:26:37;;;;;;;;;;;18.20;99.90;;;;;;8274685;28;19910;-66
2021/09/15 19:30:37;;;;;;;;;;;18.20;99.90;;;;;;8291863;28;19921;-66
2021/09/15 19:34:41;;;;;;;;;;;18.10;99.90;;;;;;8293129;28;19914;-66
2021/09/15 19:38:41;;;;;;;;;;;18.10;99.90;;;;;;8293661;28;19906;-66
2021/09/15 19:42:42;;;;;;;;;;;18.10;99.90;;;;;;8293625;28;20416;-66
2021/09/15 19:46:42;;;;;;;;;;;18.10;99.90;;;;;;8292753;28;19913;-66
2021/09/15 19:50:43;;;;;;;;;;;18.00;99.90;;;;;;8287681;28;20296;-66
2021/09/15 19:54:43;;;;;;;;;;;18.10;99.90;;;;;;8274057;28;19905;-65
2021/09/15 19:58:46;;;;;;;;;;;18.10;99.90;;;;;;8275282;28;19913;-66
2021/09/15 20:02:46;;;;;;;;;;;18.10;99.90;;;;;;8258489;28;20527;-66
2021/09/15 20:06:47;;;;;;;;;;;18.10;99.90;;;;;;8291911;28;20004;-66
2021/09/15 20:10:48;;;;;;;;;;;18.00;99.90;;;;;;8291520;28;19917;-66
2021/09/15 20:14:48;;;;;;;;;;;18.10;99.90;;;;;;8291503;28;19917;-66
2021/09/15 20:18:49;;;;;;;;;;;18.10;99.90;;;;;;8292230;28;19909;-66
2021/09/15 20:22:49;;;;;;;;;;;18.20;99.90;;;;;;8292418;28;19916;-66
2021/09/15 20:26:50;;;;;;;;;;;18.00;99.90;;;;;;8291414;28;19944;-66
2021/09/15 20:30:51;;;;;;;;;;;18.10;99.90;;;;;;8292287;28;19920;-66
2021/09/15 20:34:51;;;;;;;;;;;18.00;99.90;;;;;;8291812;28;19924;-66
2021/09/15 20:38:52;;;;;;;;;;;18.10;99.90;;;;;;8274846;28;19906;-66
2021/09/15 20:42:52;;;;;;;;;;;17.90;99.90;;;;;;8273882;28;19917;-66
2021/09/15 20:46:53;;;;;;;;;;;17.80;99.90;;;;;;8286307;28;19909;-65
2021/09/15 20:50:53;;;;;;;;;;;17.80;99.90;;;;;;8290025;28;19995;-65
2021/09/15 20:54:54;;;;;;;;;;;17.70;99.90;;;;;;8292478;28;19936;-65
2021/09/15 20:58:54;;;;;;;;;;;17.60;99.90;;;;;;8293893;28;19913;-65
2021/09/15 21:02:55;;;;;;;;;;;17.50;99.90;;;;;;8276179;28;19917;-64
2021/09/15 21:06:55;;;;;;;;;;;17.40;99.90;;;;;;8273625;28;19937;-65
2021/09/15 21:10:56;;;;;;;;;;;17.40;99.90;;;;;;8291455;28;20308;-64
2021/09/15 21:14:56;;;;;;;;;;;17.50;99.90;;;;;;8273458;28;20321;-65
2021/09/15 21:18:57;;;;;;;;;;;17.40;99.90;;;;;;8291415;28;20381;-65
2021/09/15 21:22:57;;;;;;;;;;;17.10;99.90;;;;;;8275654;28;20387;-65
2021/09/15 21:26:58;;;;;;;;;;;16.90;99.90;;;;;;8293301;28;20423;-65
2021/09/15 21:30:58;;;;;;;;;;;16.70;99.90;;;;;;8276060;28;20537;-65
2021/09/15 21:34:59;;;;;;;;;;;16.60;99.90;;;;;;8293133;28;19909;-65
2021/09/15 21:38:59;;;;;;;;;;;16.50;99.90;;;;;;8293796;28;19913;-65
2021/09/15 21:43:00;;;;;;;;;;;16.50;99.90;;;;;;8275740;28;19909;-65
2021/09/15 21:47:00;;;;;;;;;;;16.30;99.90;;;;;;8293046;28;20373;-65
2021/09/15 21:51:00;;;;;;;;;;;16.40;99.90;;;;;;8275726;28;19992;-65
2021/09/15 21:55:01;;;;;;;;;;;16.60;99.90;;;;;;8292789;28;19960;-65
2021/09/15 21:59:02;;;;;;;;;;;16.60;99.90;;;;;;8275052;28;19914;-65
2021/09/15 22:03:02;;;;;;;;;;;16.70;99.90;;;;;;8290626;28;19931;-64
2021/09/15 22:07:03;;;;;;;;;;;16.90;99.90;;;;;;8272616;28;19968;-64
2021/09/15 22:11:07;;;;;;;;;;;17.10;99.90;;;;;;8290344;28;19905;-65
2021/09/15 22:15:08;;;;;;;;;;;17.10;99.90;;;;;;8278923;28;19935;-65
2021/09/15 22:19:08;;;;;;;;;;;17.20;99.90;;;;;;8299245;28;20464;-64
2021/09/15 22:23:09;;;;;;;;;;;17.10;99.90;;;;;;8299391;28;19909;-64
2021/09/15 22:27:09;;;;;;;;;;;17.10;99.90;;;;;;8298876;28;19995;-64
2021/09/15 22:31:10;;;;;;;;;;;16.80;99.90;;;;;;8298903;28;20554;-64
2021/09/15 22:35:11;;;;;;;;;;;16.70;99.90;;;;;;8298804;28;20377;-65
2021/09/15 22:39:13;;;;;;;;;;;16.60;99.90;;;;;;8299438;28;19933;-64
2021/09/15 22:43:13;;;;;;;;;;;16.80;99.90;;;;;;8299395;28;19916;-64
2021/09/15 22:47:14;;;;;;;;;;;16.60;99.90;;;;;;8298676;28;19912;-64
2021/09/15 22:51:14;;;;;;;;;;;16.60;99.90;;;;;;8298778;28;19906;-65
2021/09/15 22:55:14;;;;;;;;;;;16.50;99.90;;;;;;8298063;28;19905;-64
2021/09/15 22:59:15;;;;;;;;;;;16.60;99.90;;;;;;8298145;28;20531;-64
2021/09/15 23:03:15;;;;;;;;;;;16.80;99.90;;;;;;8297912;28;19931;-64
2021/09/15 23:07:16;;;;;;;;;;;16.90;99.90;;;;;;8280151;28;20365;-64
2021/09/15 23:11:16;;;;;;;;;;;17.00;99.90;;;;;;8297656;28;19909;-65
2021/09/15 23:15:18;;;;;;;;;;;16.90;99.90;;;;;;8297611;28;19909;-64
2021/09/15 23:19:18;;;;;;;;;;;16.90;99.90;;;;;;8298093;28;19913;-64
2021/09/15 23:23:19;;;;;;;;;;;16.90;99.90;;;;;;8297817;28;19914;-64
2021/09/15 23:27:20;;;;;;;;;;;16.70;99.90;;;;;;8297423;28;20055;-64
2021/09/15 23:31:20;;;;;;;;;;;16.70;99.90;;;;;;8297700;28;19913;-65
2021/09/15 23:35:21;;;;;;;;;;;16.60;99.90;;;;;;8297024;28;19979;-65